createdAt,value
2019-04-07T00:00:07.412Z,1003.30
2019-04-07T00:01:06.860Z,1003.32
2019-04-07T00:02:06.895Z,1003.32
2019-04-07T00:03:06.959Z,1003.31
2019-04-07T00:04:06.849Z,1003.29
2019-04-07T00:05:12.378Z,1003.24
2019-04-07T00:06:06.839Z,1003.29
2019-04-07T00:07:06.910Z,1003.28
2019-04-07T00:08:06.837Z,1003.25
2019-04-07T00:09:07.094Z,1003.29
2019-04-07T00:10:07.159Z,1003.26
2019-04-07T00:11:06.817Z,1003.28
2019-04-07T00:12:07.102Z,1003.27
2019-04-07T00:13:07.119Z,1003.28
2019-04-07T00:14:07.095Z,1003.27
2019-04-07T00:15:06.997Z,1003.27
2019-04-07T00:16:07.202Z,1003.25
2019-04-07T00:17:06.791Z,1003.21
2019-04-07T00:18:06.786Z,1003.26
2019-04-07T00:19:06.782Z,1003.22
2019-04-07T00:20:07.313Z,1003.22
2019-04-07T00:21:06.772Z,1003.22
2019-04-07T00:22:06.768Z,1003.23
2019-04-07T00:23:06.842Z,1003.17
2019-04-07T00:24:06.764Z,1003.20
2019-04-07T00:25:06.753Z,1003.22
2019-04-07T00:26:06.748Z,1003.21
2019-04-07T00:27:06.918Z,1003.24
2019-04-07T00:28:06.739Z,1003.24
2019-04-07T00:29:06.734Z,1003.24
2019-04-07T00:30:06.730Z,1003.23
2019-04-07T00:31:06.726Z,1003.21
2019-04-07T00:32:06.725Z,1003.23
2019-04-07T00:33:06.720Z,1003.19
2019-04-07T00:34:07.033Z,1003.21
2019-04-07T00:35:06.708Z,1003.22
2019-04-07T00:36:07.319Z,1003.21
2019-04-07T00:37:07.283Z,1003.18
2019-04-07T00:38:07.338Z,1003.16
2019-04-07T00:39:06.882Z,1003.16
2019-04-07T00:40:07.023Z,1003.18
2019-04-07T00:41:06.845Z,1003.21
2019-04-07T00:42:07.192Z,1003.18
2019-04-07T00:43:06.666Z,1003.20
2019-04-07T00:44:07.117Z,1003.18
2019-04-07T00:45:06.665Z,1003.17
2019-04-07T00:46:06.656Z,1003.15
2019-04-07T00:47:06.657Z,1003.17
2019-04-07T00:48:06.906Z,1003.19
2019-04-07T00:49:06.657Z,1003.15
2019-04-07T00:50:06.651Z,1003.16
2019-04-07T00:51:06.678Z,1003.18
2019-04-07T00:52:07.072Z,1003.19
2019-04-07T00:53:06.619Z,1003.18
2019-04-07T00:54:07.282Z,1003.22
2019-04-07T00:55:06.636Z,1003.21
2019-04-07T00:56:06.670Z,1003.17
2019-04-07T00:57:06.670Z,1003.18
2019-04-07T00:58:07.105Z,1003.16
2019-04-07T00:59:06.589Z,1003.19
2019-04-07T01:00:07.074Z,1003.15
2019-04-07T01:01:06.586Z,1003.18
2019-04-07T01:02:06.962Z,1003.16
2019-04-07T01:03:07.132Z,1003.19
2019-04-07T01:04:06.568Z,1003.19
2019-04-07T01:05:07.243Z,1003.17
2019-04-07T01:06:06.560Z,1003.17
2019-04-07T01:07:06.552Z,1003.17
2019-04-07T01:08:06.544Z,1003.18
2019-04-07T01:09:07.008Z,1003.18
2019-04-07T01:10:06.537Z,1003.18
2019-04-07T01:11:06.536Z,1003.18
2019-04-07T01:12:07.215Z,1003.16
2019-04-07T01:13:06.559Z,1003.20
2019-04-07T01:14:07.007Z,1003.20
2019-04-07T01:15:06.513Z,1003.19
2019-04-07T01:16:06.667Z,1003.21
2019-04-07T01:17:07.065Z,1003.18
2019-04-07T01:18:06.495Z,1003.19
2019-04-07T01:19:07.180Z,1003.19
2019-04-07T01:20:06.483Z,1003.20
2019-04-07T01:21:06.477Z,1003.22
2019-04-07T01:22:06.521Z,1003.22
2019-04-07T01:23:06.983Z,1003.24
2019-04-07T01:24:06.515Z,1003.23
2019-04-07T01:25:07.091Z,1003.24
2019-04-07T01:26:06.472Z,1003.25
2019-04-07T01:27:06.608Z,1003.24
2019-04-07T01:28:06.673Z,1003.23
2019-04-07T01:29:06.436Z,1003.26
2019-04-07T01:30:07.113Z,1003.26
2019-04-07T01:31:07.129Z,1003.25
2019-04-07T01:32:07.119Z,1003.29
2019-04-07T01:33:06.477Z,1003.20
2019-04-07T01:34:06.409Z,1003.25
2019-04-07T01:35:07.026Z,1003.26
2019-04-07T01:36:06.413Z,1003.29
2019-04-07T01:37:06.395Z,1003.26
2019-04-07T01:38:07.114Z,1003.27
2019-04-07T01:39:06.442Z,1003.26
2019-04-07T01:40:06.378Z,1003.29
2019-04-07T01:41:06.370Z,1003.30
2019-04-07T01:42:06.584Z,1003.29
2019-04-07T01:43:06.477Z,1003.29
2019-04-07T01:44:06.355Z,1003.30
2019-04-07T01:45:06.351Z,1003.29
2019-04-07T01:46:06.415Z,1003.33
2019-04-07T01:47:06.342Z,1003.30
2019-04-07T01:48:06.333Z,1003.30
2019-04-07T01:49:08.049Z,1003.34
2019-04-07T01:50:06.576Z,1003.33
2019-04-07T01:51:06.319Z,1003.32
2019-04-07T01:52:06.316Z,1003.32
2019-04-07T01:53:06.709Z,1003.30
2019-04-07T01:54:06.421Z,1003.29
2019-04-07T01:55:06.431Z,1003.28
2019-04-07T01:56:06.450Z,1003.31
2019-04-07T01:57:06.285Z,1003.29
2019-04-07T01:58:06.279Z,1003.30
2019-04-07T01:59:06.700Z,1003.28
2019-04-07T02:00:06.268Z,1003.28
2019-04-07T02:01:06.554Z,1003.30
2019-04-07T02:02:06.261Z,1003.29
2019-04-07T02:03:06.410Z,1003.29
2019-04-07T02:04:06.778Z,1003.25
2019-04-07T02:05:06.738Z,1003.23
2019-04-07T02:06:06.838Z,1003.28
2019-04-07T02:07:06.231Z,1003.30
2019-04-07T02:08:06.656Z,1003.22
2019-04-07T02:09:06.218Z,1003.26
2019-04-07T02:10:06.212Z,1003.24
2019-04-07T02:11:06.210Z,1003.24
2019-04-07T02:12:06.911Z,1003.27
2019-04-07T02:13:06.201Z,1003.26
2019-04-07T02:14:07.014Z,1003.22
2019-04-07T02:15:06.347Z,1003.26
2019-04-07T02:16:06.179Z,1003.23
2019-04-07T02:17:06.482Z,1003.21
2019-04-07T02:18:06.171Z,1003.22
2019-04-07T02:19:06.283Z,1003.24
2019-04-07T02:20:06.789Z,1003.22
2019-04-07T02:21:06.329Z,1003.24
2019-04-07T02:22:06.922Z,1003.24
2019-04-07T02:23:06.344Z,1003.22
2019-04-07T02:24:06.128Z,1003.26
2019-04-07T02:25:06.393Z,1003.24
2019-04-07T02:26:06.123Z,1003.26
2019-04-07T02:27:06.131Z,1003.29
2019-04-07T02:28:06.450Z,1003.28
2019-04-07T02:29:06.656Z,1003.29
2019-04-07T02:30:06.110Z,1003.26
2019-04-07T02:31:06.231Z,1003.29
2019-04-07T02:32:06.236Z,1003.30
2019-04-07T02:33:06.281Z,1003.25
2019-04-07T02:34:06.834Z,1003.27
2019-04-07T02:35:06.076Z,1003.29
2019-04-07T02:36:16.033Z,1003.24
2019-04-07T02:37:06.621Z,1003.26
2019-04-07T02:38:06.239Z,1003.25
2019-04-07T02:39:06.046Z,1003.25
2019-04-07T02:40:06.312Z,1003.27
2019-04-07T02:41:06.231Z,1003.31
2019-04-07T02:42:06.033Z,1003.28
2019-04-07T02:43:06.038Z,1003.32
2019-04-07T02:44:06.862Z,1003.33
2019-04-07T02:45:06.013Z,1003.32
2019-04-07T02:46:06.014Z,1003.32
2019-04-07T02:47:06.464Z,1003.32
2019-04-07T02:48:06.894Z,1003.32
2019-04-07T02:49:05.986Z,1003.33
2019-04-07T02:50:07.109Z,1003.34
2019-04-07T02:51:05.978Z,1003.32
2019-04-07T02:52:05.969Z,1003.36
2019-04-07T02:53:05.964Z,1003.36
2019-04-07T02:54:05.982Z,1003.39
2019-04-07T02:55:06.293Z,1003.39
2019-04-07T02:56:06.614Z,1003.42
2019-04-07T02:57:06.437Z,1003.41
2019-04-07T02:58:05.978Z,1003.44
2019-04-07T02:59:05.964Z,1003.44
2019-04-07T03:00:06.362Z,1003.45
2019-04-07T03:01:06.152Z,1003.47
2019-04-07T03:02:06.001Z,1003.46
2019-04-07T03:03:05.907Z,1003.46
2019-04-07T03:04:05.900Z,1003.46
2019-04-07T03:05:06.410Z,1003.50
2019-04-07T03:06:06.840Z,1003.50
2019-04-07T03:07:06.769Z,1003.49
2019-04-07T03:08:05.922Z,1003.52
2019-04-07T03:09:05.873Z,1003.54
2019-04-07T03:10:05.866Z,1003.56
2019-04-07T03:11:05.865Z,1003.55
2019-04-07T03:12:05.856Z,1003.58
2019-04-07T03:13:06.222Z,1003.55
2019-04-07T03:14:07.055Z,1003.56
2019-04-07T03:15:06.836Z,1003.52
2019-04-07T03:16:05.830Z,1003.51
2019-04-07T03:17:06.667Z,1003.51
2019-04-07T03:18:06.860Z,1003.53
2019-04-07T03:19:06.604Z,1003.54
2019-04-07T03:20:07.008Z,1003.53
2019-04-07T03:21:05.805Z,1003.52
2019-04-07T03:22:06.533Z,1003.54
2019-04-07T03:23:05.794Z,1003.54
2019-04-07T03:24:06.211Z,1003.53
2019-04-07T03:25:06.538Z,1003.54
2019-04-07T03:26:05.773Z,1003.56
2019-04-07T03:27:06.562Z,1003.49
2019-04-07T03:28:06.723Z,1003.56
2019-04-07T03:29:05.766Z,1003.56
2019-04-07T03:30:06.190Z,1003.52
2019-04-07T03:31:06.155Z,1003.53
2019-04-07T03:32:07.870Z,1003.51
2019-04-07T03:33:08.807Z,1003.52
2019-04-07T03:34:06.318Z,1003.51
2019-04-07T03:35:06.469Z,1003.52
2019-04-07T03:36:08.590Z,1003.55
2019-04-07T03:37:27.047Z,1003.53
2019-04-07T03:38:06.484Z,1003.54
2019-04-07T03:39:06.484Z,1003.54
2019-04-07T03:40:06.542Z,1003.57
2019-04-07T03:41:05.681Z,1003.58
2019-04-07T03:42:06.261Z,1003.55
2019-04-07T03:43:05.669Z,1003.57
2019-04-07T03:44:06.119Z,1003.57
2019-04-07T03:45:06.154Z,1003.57
2019-04-07T03:46:06.018Z,1003.55
2019-04-07T03:47:06.989Z,1003.64
2019-04-07T03:48:06.904Z,1003.56
2019-04-07T03:49:06.050Z,1003.61
2019-04-07T03:50:05.627Z,1003.60
2019-04-07T03:51:06.674Z,1003.62
2019-04-07T03:52:05.776Z,1003.59
2019-04-07T03:53:06.083Z,1003.58
2019-04-07T03:54:05.600Z,1003.59
2019-04-07T03:55:06.586Z,1003.60
2019-04-07T03:56:05.961Z,1003.62
2019-04-07T03:57:05.581Z,1003.60
2019-04-07T03:58:05.844Z,1003.64
2019-04-07T03:59:05.639Z,1003.62
2019-04-07T04:00:05.895Z,1003.60
2019-04-07T04:01:05.556Z,1003.62
2019-04-07T04:02:05.549Z,1003.63
2019-04-07T04:03:05.544Z,1003.61
2019-04-07T04:04:05.653Z,1003.59
2019-04-07T04:05:05.528Z,1003.60
2019-04-07T04:06:05.525Z,1003.56
2019-04-07T04:07:20.694Z,1003.57
2019-04-07T04:08:06.169Z,1003.54
2019-04-07T04:09:05.964Z,1003.55
2019-04-07T04:10:06.541Z,1003.55
2019-04-07T04:11:06.209Z,1003.55
2019-04-07T04:12:07.089Z,1003.52
2019-04-07T04:13:05.483Z,1003.52
2019-04-07T04:14:05.470Z,1003.56
2019-04-07T04:15:06.692Z,1003.54
2019-04-07T04:16:06.185Z,1003.53
2019-04-07T04:17:06.284Z,1003.55
2019-04-07T04:18:05.531Z,1003.54
2019-04-07T04:19:06.626Z,1003.56
2019-04-07T04:20:06.220Z,1003.54
2019-04-07T04:21:05.440Z,1003.58
2019-04-07T04:22:05.928Z,1003.54
2019-04-07T04:23:05.915Z,1003.55
2019-04-07T04:24:06.066Z,1003.54
2019-04-07T04:25:05.403Z,1003.55
2019-04-07T04:26:06.335Z,1003.56
2019-04-07T04:27:05.394Z,1003.53
2019-04-07T04:28:05.377Z,1003.58
2019-04-07T04:29:05.750Z,1003.57
2019-04-07T04:30:05.366Z,1003.60
2019-04-07T04:31:05.357Z,1003.58
2019-04-07T04:32:05.847Z,1003.59
2019-04-07T04:33:06.267Z,1003.60
2019-04-07T04:34:05.495Z,1003.60
2019-04-07T04:35:06.460Z,1003.64
2019-04-07T04:36:05.703Z,1003.63
2019-04-07T04:37:05.324Z,1003.63
2019-04-07T04:38:06.013Z,1003.67
2019-04-07T04:39:05.322Z,1003.68
2019-04-07T04:40:05.298Z,1003.70
2019-04-07T04:41:05.295Z,1003.64
2019-04-07T04:42:05.645Z,1003.70
2019-04-07T04:43:05.281Z,1003.70
2019-04-07T04:44:05.272Z,1003.70
2019-04-07T04:45:06.204Z,1003.72
2019-04-07T04:46:08.666Z,1003.70
2019-04-07T04:47:05.251Z,1003.69
2019-04-07T04:48:05.243Z,1003.70
2019-04-07T04:49:05.236Z,1003.75
2019-04-07T04:50:06.336Z,1003.74
2019-04-07T04:51:05.414Z,1003.77
2019-04-07T04:52:05.301Z,1003.77
2019-04-07T04:53:06.105Z,1003.79
2019-04-07T04:54:05.242Z,1003.79
2019-04-07T04:55:05.194Z,1003.77
2019-04-07T04:56:05.578Z,1003.78
2019-04-07T04:57:07.703Z,1003.79
2019-04-07T04:58:05.469Z,1003.74
2019-04-07T04:59:06.023Z,1003.73
2019-04-07T05:00:05.274Z,1003.78
2019-04-07T05:01:05.151Z,1003.80
2019-04-07T05:02:05.673Z,1003.79
2019-04-07T05:03:05.139Z,1003.77
2019-04-07T05:04:05.133Z,1003.78
2019-04-07T05:05:08.079Z,1003.81
2019-04-07T05:06:05.119Z,1003.81
2019-04-07T05:07:05.706Z,1003.80
2019-04-07T05:08:05.526Z,1003.78
2019-04-07T05:09:05.613Z,1003.80
2019-04-07T05:10:05.696Z,1003.81
2019-04-07T05:11:05.085Z,1003.81
2019-04-07T05:12:06.123Z,1003.79
2019-04-07T05:13:05.079Z,1003.85
2019-04-07T05:14:05.063Z,1003.84
2019-04-07T05:15:05.128Z,1003.85
2019-04-07T05:16:05.683Z,1003.87
2019-04-07T05:17:05.209Z,1003.87
2019-04-07T05:18:05.263Z,1003.87
2019-04-07T05:19:05.037Z,1003.88
2019-04-07T05:20:05.777Z,1003.91
2019-04-07T05:21:05.239Z,1003.94
2019-04-07T05:22:05.067Z,1003.91
2019-04-07T05:23:05.235Z,1003.97
2019-04-07T05:24:05.692Z,1003.97
2019-04-07T05:25:05.144Z,1003.97
2019-04-07T05:26:05.728Z,1004.03
2019-04-07T05:27:04.978Z,1003.99
2019-04-07T05:28:04.972Z,1003.98
2019-04-07T05:29:04.965Z,1003.96
2019-04-07T05:30:05.032Z,1004.00
2019-04-07T05:31:05.627Z,1003.99
2019-04-07T05:32:05.645Z,1004.03
2019-04-07T05:33:05.547Z,1004.04
2019-04-07T05:34:05.387Z,1004.00
2019-04-07T05:35:05.897Z,1004.04
2019-04-07T05:36:04.918Z,1004.06
2019-04-07T05:37:04.913Z,1004.09
2019-04-07T05:38:06.618Z,1004.04
2019-04-07T05:39:05.337Z,1004.06
2019-04-07T05:40:04.913Z,1004.08
2019-04-07T05:41:05.426Z,1004.13
2019-04-07T05:42:04.887Z,1004.11
2019-04-07T05:43:04.880Z,1004.07
2019-04-07T05:44:04.871Z,1004.09
2019-04-07T05:45:05.140Z,1004.11
2019-04-07T05:46:07.093Z,1004.12
2019-04-07T05:47:04.856Z,1004.13
2019-04-07T05:48:05.442Z,1004.13
2019-04-07T05:49:05.368Z,1004.17
2019-04-07T05:50:05.299Z,1004.13
2019-04-07T05:51:05.518Z,1004.12
2019-04-07T05:52:05.860Z,1004.11
2019-04-07T05:53:06.791Z,1004.13
2019-04-07T05:54:04.822Z,1004.10
2019-04-07T05:55:04.880Z,1004.09
2019-04-07T05:56:06.018Z,1004.08
2019-04-07T05:57:05.454Z,1004.10
2019-04-07T05:58:07.226Z,1004.10
2019-04-07T05:59:04.803Z,1004.09
2019-04-07T06:00:04.790Z,1004.07
2019-04-07T06:01:05.225Z,1004.06
2019-04-07T06:02:04.782Z,1004.09
2019-04-07T06:03:08.243Z,1004.08
2019-04-07T06:04:05.541Z,1004.09
2019-04-07T06:05:05.334Z,1004.13
2019-04-07T06:06:05.032Z,1004.09
2019-04-07T06:07:04.765Z,1004.09
2019-04-07T06:08:20.909Z,1004.10
2019-04-07T06:09:05.200Z,1004.12
2019-04-07T06:10:05.373Z,1004.14
2019-04-07T06:11:05.019Z,1004.17
2019-04-07T06:12:09.084Z,1004.16
2019-04-07T06:13:05.330Z,1004.16
2019-04-07T06:14:05.008Z,1004.14
2019-04-07T06:15:05.279Z,1004.13
2019-04-07T06:16:05.349Z,1004.13
2019-04-07T06:17:04.958Z,1004.14
2019-04-07T06:18:05.139Z,1004.14
2019-04-07T06:19:07.921Z,1004.18
2019-04-07T06:20:04.724Z,1004.18
2019-04-07T06:21:04.822Z,1004.13
2019-04-07T06:22:07.436Z,1004.17
2019-04-07T06:23:04.714Z,1004.18
2019-04-07T06:24:04.790Z,1004.18
2019-04-07T06:25:05.773Z,1004.17
2019-04-07T06:26:09.256Z,1004.18
2019-04-07T06:27:05.500Z,1004.18
2019-04-07T06:28:05.410Z,1004.22
2019-04-07T06:29:04.822Z,1004.21
2019-04-07T06:30:04.704Z,1004.22
2019-04-07T06:31:04.920Z,1004.22
2019-04-07T06:32:05.548Z,1004.24
2019-04-07T06:33:06.972Z,1004.27
2019-04-07T06:34:08.680Z,1004.26
2019-04-07T06:35:05.117Z,1004.22
2019-04-07T06:36:05.032Z,1004.26
2019-04-07T06:37:04.686Z,1004.26
2019-04-07T06:38:06.147Z,1004.26
2019-04-07T06:39:04.705Z,1004.26
2019-04-07T06:40:04.760Z,1004.26
2019-04-07T06:41:04.682Z,1004.28
2019-04-07T06:42:05.790Z,1004.26
2019-04-07T06:43:06.327Z,1004.27
2019-04-07T06:44:11.412Z,1004.30
2019-04-07T06:45:05.316Z,1004.29
2019-04-07T06:46:04.890Z,1004.28
2019-04-07T06:47:04.730Z,1004.29
2019-04-07T06:48:07.652Z,1004.25
2019-04-07T06:49:04.665Z,1004.28
2019-04-07T06:50:05.630Z,1004.25
2019-04-07T06:51:04.985Z,1004.27
2019-04-07T06:52:04.859Z,1004.28
2019-04-07T06:53:05.351Z,1004.26
2019-04-07T06:54:04.819Z,1004.30
2019-04-07T06:55:04.659Z,1004.26
2019-04-07T06:56:05.221Z,1004.27
2019-04-07T06:57:06.351Z,1004.30
2019-04-07T06:58:08.074Z,1004.21
2019-04-07T06:59:04.671Z,1004.24
2019-04-07T07:00:04.655Z,1004.30
2019-04-07T07:01:04.715Z,1004.28
2019-04-07T07:02:05.421Z,1004.30
2019-04-07T07:03:04.655Z,1004.29
2019-04-07T07:04:08.600Z,1004.28
2019-04-07T07:05:05.182Z,1004.29
2019-04-07T07:06:04.755Z,1004.25
2019-04-07T07:07:06.327Z,1004.31
2019-04-07T07:08:05.174Z,1004.31
2019-04-07T07:09:04.646Z,1004.26
2019-04-07T07:10:06.292Z,1004.27
2019-04-07T07:11:05.809Z,1004.32
2019-04-07T07:12:05.102Z,1004.29
2019-04-07T07:13:09.324Z,1004.34
2019-04-07T07:14:04.643Z,1004.38
2019-04-07T07:15:04.710Z,1004.37
2019-04-07T07:16:08.524Z,1004.34
2019-04-07T07:17:05.357Z,1004.35
2019-04-07T07:18:04.726Z,1004.35
2019-04-07T07:19:05.200Z,1004.35
2019-04-07T07:20:05.744Z,1004.39
2019-04-07T07:21:05.075Z,1004.41
2019-04-07T07:22:10.073Z,1004.40
2019-04-07T07:23:04.716Z,1004.37
2019-04-07T07:24:04.974Z,1004.39
2019-04-07T07:25:05.205Z,1004.37
2019-04-07T07:26:04.646Z,1004.42
2019-04-07T07:27:07.286Z,1004.45
2019-04-07T07:28:04.640Z,1004.46
2019-04-07T07:29:06.495Z,1004.47
2019-04-07T07:30:04.652Z,1004.44
2019-04-07T07:31:05.313Z,1004.47
2019-04-07T07:32:04.927Z,1004.45
2019-04-07T07:33:07.306Z,1004.46
2019-04-07T07:34:05.059Z,1004.45
2019-04-07T07:35:05.086Z,1004.43
2019-04-07T07:36:04.642Z,1004.42
2019-04-07T07:37:05.210Z,1004.45
2019-04-07T07:38:04.930Z,1004.37
2019-04-07T07:39:08.561Z,1004.38
2019-04-07T07:40:07.495Z,1004.44
2019-04-07T07:41:04.764Z,1004.39
2019-04-07T07:42:04.635Z,1004.50
2019-04-07T07:43:04.639Z,1004.44
2019-04-07T07:44:07.577Z,1004.40
2019-04-07T07:45:08.100Z,1004.40
2019-04-07T07:46:04.631Z,1004.37
2019-04-07T07:47:04.630Z,1004.35
2019-04-07T07:48:05.285Z,1004.34
2019-04-07T07:49:04.628Z,1004.34
2019-04-07T07:50:05.393Z,1004.32
2019-04-07T07:51:07.187Z,1004.34
2019-04-07T07:52:04.963Z,1004.35
2019-04-07T07:53:04.748Z,1004.34
2019-04-07T07:54:04.735Z,1004.34
2019-04-07T07:55:04.613Z,1004.33
2019-04-07T07:56:08.186Z,1004.35
2019-04-07T07:57:04.961Z,1004.32
2019-04-07T07:58:04.607Z,1004.33
2019-04-07T07:59:04.668Z,1004.36
2019-04-07T08:00:06.971Z,1004.33
2019-04-07T08:01:05.336Z,1004.34
2019-04-07T08:02:04.595Z,1004.33
2019-04-07T08:03:04.864Z,1004.31
2019-04-07T08:04:05.225Z,1004.33
2019-04-07T08:05:05.327Z,1004.34
2019-04-07T08:06:07.955Z,1004.35
2019-04-07T08:07:05.431Z,1004.34
2019-04-07T08:08:04.800Z,1004.36
2019-04-07T08:09:11.173Z,1004.38
2019-04-07T08:10:04.875Z,1004.33
2019-04-07T08:11:04.633Z,1004.33
2019-04-07T08:12:05.166Z,1004.39
2019-04-07T08:13:07.489Z,1004.38
2019-04-07T08:14:04.570Z,1004.35
2019-04-07T08:15:04.917Z,1004.39
2019-04-07T08:16:05.089Z,1004.37
2019-04-07T08:17:04.561Z,1004.40
2019-04-07T08:18:07.295Z,1004.40
2019-04-07T08:19:08.411Z,1004.44
2019-04-07T08:20:04.552Z,1004.45
2019-04-07T08:21:04.549Z,1004.43
2019-04-07T08:22:06.457Z,1004.42
2019-04-07T08:23:05.242Z,1004.45
2019-04-07T08:24:04.545Z,1004.46
2019-04-07T08:25:05.216Z,1004.44
2019-04-07T08:26:04.964Z,1004.45
2019-04-07T08:27:05.147Z,1004.46
2019-04-07T08:28:04.730Z,1004.48
2019-04-07T08:29:06.796Z,1004.50
2019-04-07T08:30:06.984Z,1004.51
2019-04-07T08:31:04.529Z,1004.53
2019-04-07T08:32:05.352Z,1004.50
2019-04-07T08:33:04.893Z,1004.51
2019-04-07T08:34:04.517Z,1004.51
2019-04-07T08:35:05.633Z,1004.49
2019-04-07T08:36:04.514Z,1004.46
2019-04-07T08:37:04.825Z,1004.43
2019-04-07T08:38:04.617Z,1004.46
2019-04-07T08:39:05.013Z,1004.48
2019-04-07T08:40:07.243Z,1004.50
2019-04-07T08:41:08.725Z,1004.47
2019-04-07T08:42:09.604Z,1004.46
2019-04-07T08:43:04.496Z,1004.48
2019-04-07T08:44:04.497Z,1004.50
2019-04-07T08:45:04.626Z,1004.47
2019-04-07T08:46:05.122Z,1004.50
2019-04-07T08:47:04.485Z,1004.43
2019-04-07T08:48:05.012Z,1004.48
2019-04-07T08:49:04.482Z,1004.47
2019-04-07T08:50:04.505Z,1004.48
2019-04-07T08:51:04.726Z,1004.48
2019-04-07T08:52:08.744Z,1004.49
2019-04-07T08:53:04.695Z,1004.54
2019-04-07T08:54:05.076Z,1004.48
2019-04-07T08:55:05.004Z,1004.53
2019-04-07T08:56:06.868Z,1004.50
2019-04-07T08:57:04.625Z,1004.48
2019-04-07T08:58:05.677Z,1004.50
2019-04-07T08:59:08.459Z,1004.55
2019-04-07T09:00:05.117Z,1004.46
2019-04-07T09:01:05.294Z,1004.50
2019-04-07T09:02:05.388Z,1004.51
2019-04-07T09:03:10.528Z,1004.52
2019-04-07T09:04:04.534Z,1004.55
2019-04-07T09:05:04.514Z,1004.53
2019-04-07T09:06:04.769Z,1004.51
2019-04-07T09:07:05.117Z,1004.57
2019-04-07T09:08:06.067Z,1004.56
2019-04-07T09:09:07.218Z,1004.58
2019-04-07T09:10:04.446Z,1004.59
2019-04-07T09:11:04.694Z,1004.58
2019-04-07T09:12:04.840Z,1004.61
2019-04-07T09:13:07.971Z,1004.59
2019-04-07T09:14:06.364Z,1004.62
2019-04-07T09:15:05.291Z,1004.54
2019-04-07T09:16:04.721Z,1004.55
2019-04-07T09:17:04.702Z,1004.57
2019-04-07T09:18:04.476Z,1004.57
2019-04-07T09:19:06.792Z,1004.53
2019-04-07T09:20:08.532Z,1004.55
2019-04-07T09:21:04.594Z,1004.58
2019-04-07T09:22:04.439Z,1004.60
2019-04-07T09:23:06.578Z,1004.57
2019-04-07T09:24:05.013Z,1004.56
2019-04-07T09:25:08.506Z,1004.62
2019-04-07T09:26:04.403Z,1004.63
2019-04-07T09:27:04.405Z,1004.64
2019-04-07T09:28:04.400Z,1004.63
2019-04-07T09:29:05.112Z,1004.63
2019-04-07T09:30:06.095Z,1004.60
2019-04-07T09:31:04.604Z,1004.63
2019-04-07T09:32:04.429Z,1004.60
2019-04-07T09:33:04.397Z,1004.57
2019-04-07T09:34:04.391Z,1004.61
2019-04-07T09:35:07.068Z,1004.58
2019-04-07T09:36:04.401Z,1004.55
2019-04-07T09:37:04.503Z,1004.57
2019-04-07T09:38:04.383Z,1004.55
2019-04-07T09:39:04.381Z,1004.61
2019-04-07T09:40:05.487Z,1004.58
2019-04-07T09:41:04.379Z,1004.53
2019-04-07T09:42:04.377Z,1004.57
2019-04-07T09:43:05.347Z,1004.55
2019-04-07T09:44:05.216Z,1004.54
2019-04-07T09:45:07.425Z,1004.56
2019-04-07T09:46:04.952Z,1004.55
2019-04-07T09:47:04.367Z,1004.58
2019-04-07T09:48:04.372Z,1004.63
2019-04-07T09:49:04.548Z,1004.58
2019-04-07T09:50:04.845Z,1004.63
2019-04-07T09:51:07.163Z,1004.62
2019-04-07T09:52:04.359Z,1004.61
2019-04-07T09:53:04.363Z,1004.60
2019-04-07T09:54:05.164Z,1004.62
2019-04-07T09:55:04.573Z,1004.63
2019-04-07T09:56:05.739Z,1004.59
2019-04-07T09:57:06.952Z,1004.58
2019-04-07T09:58:07.968Z,1004.57
2019-04-07T09:59:04.351Z,1004.59
2019-04-07T10:00:07.123Z,1004.56
2019-04-07T10:01:06.717Z,1004.61
2019-04-07T10:02:06.293Z,1004.55
2019-04-07T10:03:07.738Z,1004.63
2019-04-07T10:04:07.077Z,1004.51
2019-04-07T10:05:04.338Z,1004.52
2019-04-07T10:06:04.338Z,1004.48
2019-04-07T10:07:04.750Z,1004.48
2019-04-07T10:08:04.432Z,1004.54
2019-04-07T10:09:04.348Z,1004.50
2019-04-07T10:10:10.797Z,1004.59
2019-04-07T10:11:05.223Z,1004.57
2019-04-07T10:12:04.804Z,1004.54
2019-04-07T10:13:04.331Z,1004.49
2019-04-07T10:14:04.474Z,1004.44
2019-04-07T10:15:04.322Z,1004.46
2019-04-07T10:16:07.811Z,1004.47
2019-04-07T10:17:05.187Z,1004.41
2019-04-07T10:18:04.318Z,1004.48
2019-04-07T10:19:04.331Z,1004.42
2019-04-07T10:20:05.128Z,1004.44
2019-04-07T10:21:04.313Z,1004.54
2019-04-07T10:22:04.314Z,1004.46
2019-04-07T10:23:05.073Z,1004.45
2019-04-07T10:24:04.307Z,1004.50
2019-04-07T10:25:04.466Z,1004.49
2019-04-07T10:26:04.307Z,1004.43
2019-04-07T10:27:04.312Z,1004.43
2019-04-07T10:28:07.225Z,1004.38
2019-04-07T10:29:04.616Z,1004.47
2019-04-07T10:30:04.669Z,1004.48
2019-04-07T10:31:04.753Z,1004.41
2019-04-07T10:32:04.615Z,1004.37
2019-04-07T10:33:04.311Z,1004.49
2019-04-07T10:34:05.072Z,1004.42
2019-04-07T10:35:04.293Z,1004.34
2019-04-07T10:36:04.890Z,1004.37
2019-04-07T10:37:05.012Z,1004.39
2019-04-07T10:38:04.345Z,1004.43
2019-04-07T10:39:04.400Z,1004.39
2019-04-07T10:40:16.343Z,1004.36
2019-04-07T10:41:04.488Z,1004.43
2019-04-07T10:42:05.298Z,1004.44
2019-04-07T10:43:04.282Z,1004.42
2019-04-07T10:44:04.930Z,1004.43
2019-04-07T10:45:04.807Z,1004.44
2019-04-07T10:46:04.280Z,1004.38
2019-04-07T10:47:04.917Z,1004.35
2019-04-07T10:48:04.275Z,1004.36
2019-04-07T10:49:04.455Z,1004.33
2019-04-07T10:50:07.381Z,1004.34
2019-04-07T10:51:04.481Z,1004.37
2019-04-07T10:52:04.509Z,1004.41
2019-04-07T10:53:04.887Z,1004.36
2019-04-07T10:54:04.907Z,1004.36
2019-04-07T10:55:04.955Z,1004.33
2019-04-07T10:56:04.263Z,1004.34
2019-04-07T10:57:05.005Z,1004.33
2019-04-07T10:58:04.350Z,1004.32
2019-04-07T10:59:04.391Z,1004.34
2019-04-07T11:00:04.652Z,1004.32
2019-04-07T11:01:04.259Z,1004.29
2019-04-07T11:02:04.259Z,1004.36
2019-04-07T11:03:04.873Z,1004.35
2019-04-07T11:04:04.910Z,1004.33
2019-04-07T11:05:05.101Z,1004.30
2019-04-07T11:06:05.122Z,1004.30
2019-04-07T11:07:04.555Z,1004.28
2019-04-07T11:08:04.969Z,1004.27
2019-04-07T11:09:04.768Z,1004.26
2019-04-07T11:10:04.829Z,1004.23
2019-04-07T11:11:04.542Z,1004.24
2019-04-07T11:12:04.628Z,1004.21
2019-04-07T11:13:04.402Z,1004.22
2019-04-07T11:14:04.850Z,1004.24
2019-04-07T11:15:04.905Z,1004.37
2019-04-07T11:16:04.950Z,1004.37
2019-04-07T11:17:04.851Z,1004.30
2019-04-07T11:18:04.390Z,1004.25
2019-04-07T11:19:04.728Z,1004.32
2019-04-07T11:20:04.284Z,1004.27
2019-04-07T11:21:04.662Z,1004.24
2019-04-07T11:22:04.621Z,1004.24
2019-04-07T11:23:04.235Z,1004.24
2019-04-07T11:24:04.233Z,1004.26
2019-04-07T11:25:04.231Z,1004.24
2019-04-07T11:26:04.663Z,1004.26
2019-04-07T11:27:04.918Z,1004.30
2019-04-07T11:28:04.631Z,1004.24
2019-04-07T11:29:04.229Z,1004.21
2019-04-07T11:30:05.102Z,1004.25
2019-04-07T11:31:04.227Z,1004.23
2019-04-07T11:32:04.229Z,1004.29
2019-04-07T11:33:05.086Z,1004.24
2019-04-07T11:34:04.418Z,1004.23
2019-04-07T11:35:04.907Z,1004.23
2019-04-07T11:36:04.225Z,1004.22
2019-04-07T11:37:04.915Z,1004.25
2019-04-07T11:38:04.706Z,1004.21
2019-04-07T11:39:04.223Z,1004.21
2019-04-07T11:40:04.821Z,1004.22
2019-04-07T11:41:04.328Z,1004.19
2019-04-07T11:42:05.747Z,1004.26
2019-04-07T11:43:04.440Z,1004.22
2019-04-07T11:44:04.217Z,1004.19
2019-04-07T11:45:04.951Z,1004.18
2019-04-07T11:46:04.636Z,1004.21
2019-04-07T11:47:04.940Z,1004.20
2019-04-07T11:48:04.433Z,1004.15
2019-04-07T11:49:04.333Z,1004.19
2019-04-07T11:50:04.938Z,1004.19
2019-04-07T11:51:04.210Z,1004.19
2019-04-07T11:52:04.210Z,1004.25
2019-04-07T11:53:04.939Z,1004.24
2019-04-07T11:54:04.212Z,1004.18
2019-04-07T11:55:04.206Z,1004.23
2019-04-07T11:56:08.128Z,1004.20
2019-04-07T11:57:05.521Z,1004.15
2019-04-07T11:58:13.677Z,1004.19
2019-04-07T11:59:06.851Z,1004.26
2019-04-07T12:00:04.205Z,1004.23
2019-04-07T12:01:04.716Z,1004.21
2019-04-07T12:02:06.839Z,1004.21
2019-04-07T12:03:04.935Z,1004.22
2019-04-07T12:04:04.202Z,1004.24
2019-04-07T12:05:04.413Z,1004.21